Address 0xeb20618c7daeb25d5f3be8283113f296afe589ab

 
Txn Hash Method
Block
From
To
Value [Txn Fee]
0x9ab2ec5230a692d8d717c6ba7903f2601ae404f9403876f06a661a71b7813f4cTransfer95995222021-07-30 10:15:4254 days 1 hr ago0xeb20618c7daeb25d5f3be8283113f296afe589abOUT CryptoBlades: SKILL Token0 BNB0.00019596
0x7335ca6f0f0c89210d879c6ed59099a3368f72ed38d08aa117f479b3ddee43ffAdd Listing95985632021-07-30 9:27:3654 days 2 hrs ago0xeb20618c7daeb25d5f3be8283113f296afe589abOUT 0x90099da42806b21128a094c713347c7885af79e20 BNB0.001074025
0xbd655cfa15e2e3441904d0dcaccf865e97760275abc865a328a30d966f6706dbApprove95985542021-07-30 9:27:0954 days 2 hrs ago0xeb20618c7daeb25d5f3be8283113f296afe589abOUT 0x7e091b0a220356b157131c831258a9c98ac8031a0 BNB0.000266745
0x0b08600270ec550eb9ca1b6da2553b092b80a78e5ac22168bc6b28b3f4d0a400Add Listing95985432021-07-30 9:26:3654 days 2 hrs ago0xeb20618c7daeb25d5f3be8283113f296afe589abOUT 0x90099da42806b21128a094c713347c7885af79e20 BNB0.001074025
0x4f55b35f608326fdd6a961cb888a76732f1d6f7872fa8214d6adc8d134773fafApprove95985372021-07-30 9:26:1854 days 2 hrs ago0xeb20618c7daeb25d5f3be8283113f296afe589abOUT 0x7e091b0a220356b157131c831258a9c98ac8031a0 BNB0.000266745
0x4d7b467beffc7e8cb0b3ed65097e85e30f57b1f3e407f698e78242aa1c2b54daAdd Listing95952672021-07-30 6:39:1954 days 5 hrs ago0xeb20618c7daeb25d5f3be8283113f296afe589abOUT 0x90099da42806b21128a094c713347c7885af79e20 BNB0.00110428
0xebdc068e501eba619fb54b7533ceb3795fe1eeadc1a9d32fb13d801f3a0cf0e9Add Listing95952632021-07-30 6:39:0754 days 5 hrs ago0xeb20618c7daeb25d5f3be8283113f296afe589abOUT 0x90099da42806b21128a094c713347c7885af79e20 BNB0.00117928
0x4e0be8ad657982d255e4bf5c4906e99e94d9f0fc9dc5a6c99cee7115079c6fbaApprove95952602021-07-30 6:38:5854 days 5 hrs ago0xeb20618c7daeb25d5f3be8283113f296afe589abOUT 0xc6f252c2cdd4087e30608a35c022ce490b58179b0 BNB0.000266965
0x0b8fee7312360396459eb9b3adf40413c717de02421dc3850d1c20f9a5ee236bApprove95952562021-07-30 6:38:4654 days 5 hrs ago0xeb20618c7daeb25d5f3be8283113f296afe589abOUT 0xc6f252c2cdd4087e30608a35c022ce490b58179b0 BNB0.000170965
0x63cc659c19ed03a790e5ceaa0a1e87c9f57ebbcb46ea06dde055eb2aab59ccb5Transfer95952292021-07-30 6:37:2554 days 5 hrs ago0xee4ed452852b34606a1d10a98bc654cb55b129ff IN 0xeb20618c7daeb25d5f3be8283113f296afe589ab0.008 BNB0.000105
0x6b2252dc6d966482b855f19da60f9c85d7c0525a1e3010233a6fefc81bbd2c5dApprove95951622021-07-30 6:34:0454 days 5 hrs ago0xeb20618c7daeb25d5f3be8283113f296afe589abOUT 0xc6f252c2cdd4087e30608a35c022ce490b58179b0 BNB0.000266965
0x311bdd134efe9fca4848a198e298eaf526f63d9521670c0a859bdd563d3d8910Add Listing95951592021-07-30 6:33:5554 days 5 hrs ago0xeb20618c7daeb25d5f3be8283113f296afe589abOUT 0x90099da42806b21128a094c713347c7885af79e20 BNB0.00122128
0xae8425acbc1fdb1c839d0c41d32316d9b81808a1010fed2354b182726c3a23e4Add Listing95951552021-07-30 6:33:4354 days 5 hrs ago0xeb20618c7daeb25d5f3be8283113f296afe589abOUT 0x90099da42806b21128a094c713347c7885af79e20 BNB0.00122128
0x5a93a1f1c4f413e964b4a958f2115c980205e9b8b9cf3a86eb219e6d74da7d06Approve95951542021-07-30 6:33:4054 days 5 hrs ago0xeb20618c7daeb25d5f3be8283113f296afe589abOUT 0xc6f252c2cdd4087e30608a35c022ce490b58179b0 BNB0.000266965
0xdd3e8f9d264ab7d4515a17d344b37b66f6ca85bce18fe1db958bdd157bc00aa8Approve95951492021-07-30 6:33:2554 days 5 hrs ago0xeb20618c7daeb25d5f3be8283113f296afe589abOUT 0xc6f252c2cdd4087e30608a35c022ce490b58179b0 BNB0.000266965
0xd2244a83cf40c59d8706e6f2ed3eca5517f595efba10a95c7e966b9ea0f23999Claim Token Rewa...95951392021-07-30 6:32:5554 days 5 hrs ago0xeb20618c7daeb25d5f3be8283113f296afe589abOUT CryptoBlades: Gameplay0 BNB0.000194745
0x3334b1db52ab7ce6782f38e4ee3653b2a19687ee1c657965ab881fd2ce70bae6Fight95951302021-07-30 6:32:2854 days 5 hrs ago0xeb20618c7daeb25d5f3be8283113f296afe589abOUT CryptoBlades: Gameplay0 BNB0.000774665
0xd51b3fdee72560ecd715b6aabeb1218dbf1daa2cb045377757502cacffa39e0aClaim Xp Rewards95947502021-07-30 6:13:2854 days 5 hrs ago0xeb20618c7daeb25d5f3be8283113f296afe589abOUT CryptoBlades: Gameplay0 BNB0.00075121
0xf703befc47a4ffeca7ec0b4095b6e8fb28556c26f2eb6edf129be2dd5f149b16Fight95947302021-07-30 6:12:2854 days 5 hrs ago0xeb20618c7daeb25d5f3be8283113f296afe589abOUT CryptoBlades: Gameplay0 BNB0.00081436
0x9dcdea13e5633fc292a2387a7e3d9aa4b71aa638c33cc99cd77bf58be292738eFight95946732021-07-30 6:09:3754 days 5 hrs ago0xeb20618c7daeb25d5f3be8283113f296afe589abOUT CryptoBlades: Gameplay0 BNB0.00081505
0x65eeda7fa76244724550ccc745f5a4189deb5419025f7c48815e8bbbe8eb2e5bFight95946012021-07-30 6:06:0154 days 5 hrs ago0xeb20618c7daeb25d5f3be8283113f296afe589abOUT CryptoBlades: Gameplay0 BNB0.00081552
0x5c7c2c07ec007bf0d828b06e82ab9b836c19d194e72096fd7f011fa341cd5074Fight95943952021-07-30 5:55:4354 days 5 hrs ago0xeb20618c7daeb25d5f3be8283113f296afe589abOUT CryptoBlades: Gameplay0 BNB0.00077747
0xf0feb246b5ae9db7eae57fd87e8d0d2aece2af78ae9f37ee729908a1b350d90fFight95943592021-07-30 5:53:5554 days 5 hrs ago0xeb20618c7daeb25d5f3be8283113f296afe589abOUT CryptoBlades: Gameplay0 BNB0.00077785
0x99c29454541b8720c268bd64fdbd1db0fce301b411267c602f10c793d2c6222fFight95943352021-07-30 5:52:4354 days 5 hrs ago0xeb20618c7daeb25d5f3be8283113f296afe589abOUT CryptoBlades: Gameplay0 BNB0.00077283
0xdf92b04f50c7ff989c1b50582df787578c081e73ef794019e04119a8da1a4e0fFight95943202021-07-30 5:51:5854 days 5 hrs ago0xeb20618c7daeb25d5f3be8283113f296afe589abOUT CryptoBlades: Gameplay0 BNB0.000815365
[ Download CSV Export 
Parent Txn Hash Block From To Value
Loading

Contract Name:
0 BNB

Compiler Version
0

Optimization Enabled:
0 BNB

Other Settings:
-NA-
Block Transaction Gas Used Reward
Age Block Fee Address BC Fee Address Voting Power Jailed Incoming
Block Uncle Number Difficulty Gas Used Reward
Loading
Loading
Make sure to use the "Vote Down" button for any spammy posts, and the "Vote Up" for interesting conversations.